sensor_id;sensor_type;location;lat;lon;timestamp;pressure;altitude;pressure_sealevel;temperature;humidity
55755;BME280;41674;52.290;-1.474;2024-01-16T00:00:37;100682.11;;;-0.79;56.02
55755;BME280;41674;52.290;-1.474;2024-01-16T00:03:07;100677.21;;;-0.99;56.66
55755;BME280;41674;52.290;-1.474;2024-01-16T00:05:37;100670.64;;;-0.94;56.69
55755;BME280;41674;52.290;-1.474;2024-01-16T00:08:06;100665.16;;;-1.19;58.92
55755;BME280;41674;52.290;-1.474;2024-01-16T00:10:35;100661.79;;;-1.38;58.85
55755;BME280;41674;52.290;-1.474;2024-01-16T00:13:04;100661.39;;;-1.02;57.82
55755;BME280;41674;52.290;-1.474;2024-01-16T00:15:34;100658.52;;;-1.51;59.61
55755;BME280;41674;52.290;-1.474;2024-01-16T00:18:06;100655.98;;;-2.19;60.36
55755;BME280;41674;52.290;-1.474;2024-01-16T00:20:36;100644.16;;;-1.21;58.87
55755;BME280;41674;52.290;-1.474;2024-01-16T00:23:04;100636.95;;;-0.95;59.13
55755;BME280;41674;52.290;-1.474;2024-01-16T00:25:35;100633.80;;;-0.98;59.34
55755;BME280;41674;52.290;-1.474;2024-01-16T00:28:03;100636.34;;;-0.80;59.54
55755;BME280;41674;52.290;-1.474;2024-01-16T00:30:35;100636.62;;;-0.73;59.61
55755;BME280;41674;52.290;-1.474;2024-01-16T00:33:04;100634.50;;;-0.91;59.56
55755;BME280;41674;52.290;-1.474;2024-01-16T00:35:31;100632.07;;;-0.48;59.35
55755;BME280;41674;52.290;-1.474;2024-01-16T00:38:01;100631.94;;;-0.56;59.79
55755;BME280;41674;52.290;-1.474;2024-01-16T00:40:31;100628.72;;;-0.18;59.19
55755;BME280;41674;52.290;-1.474;2024-01-16T00:43:01;100628.77;;;-0.58;59.41
55755;BME280;41674;52.290;-1.474;2024-01-16T00:45:30;100626.91;;;-0.72;59.15
55755;BME280;41674;52.290;-1.474;2024-01-16T00:48:00;100619.97;;;-0.69;58.96
55755;BME280;41674;52.290;-1.474;2024-01-16T00:50:29;100615.50;;;-0.27;57.82
55755;BME280;41674;52.290;-1.474;2024-01-16T00:52:59;100608.84;;;0.20;57.43
55755;BME280;41674;52.290;-1.474;2024-01-16T00:55:29;100609.16;;;-0.12;58.26
55755;BME280;41674;52.290;-1.474;2024-01-16T00:57:58;100609.36;;;0.16;58.16
55755;BME280;41674;52.290;-1.474;2024-01-16T01:00:28;100608.26;;;-0.12;58.82
55755;BME280;41674;52.290;-1.474;2024-01-16T01:02:57;100610.23;;;0.06;58.77
55755;BME280;41674;52.290;-1.474;2024-01-16T01:05:26;100609.51;;;-0.05;58.81
55755;BME280;41674;52.290;-1.474;2024-01-16T01:07:57;100610.21;;;-0.05;59.39
55755;BME280;41674;52.290;-1.474;2024-01-16T01:10:25;100604.55;;;0.17;59.25
55755;BME280;41674;52.290;-1.474;2024-01-16T01:12:55;100606.21;;;-0.23;59.43
55755;BME280;41674;52.290;-1.474;2024-01-16T01:15:25;100601.42;;;-0.05;59.41
55755;BME280;41674;52.290;-1.474;2024-01-16T01:17:54;100607.54;;;-0.08;59.42
55755;BME280;41674;52.290;-1.474;2024-01-16T01:20:23;100611.93;;;-0.89;60.96
55755;BME280;41674;52.290;-1.474;2024-01-16T01:22:54;100604.96;;;-0.32;60.99
55755;BME280;41674;52.290;-1.474;2024-01-16T01:25:22;100605.32;;;-0.16;60.46
55755;BME280;41674;52.290;-1.474;2024-01-16T01:27:53;100605.32;;;-1.50;62.93
55755;BME280;41674;52.290;-1.474;2024-01-16T01:30:21;100609.92;;;-0.69;61.75
55755;BME280;41674;52.290;-1.474;2024-01-16T01:32:52;100606.42;;;-2.18;64.45
55755;BME280;41674;52.290;-1.474;2024-01-16T01:35:21;100604.59;;;-1.50;65.05
55755;BME280;41674;52.290;-1.474;2024-01-16T01:37:49;100600.99;;;-1.63;64.48
55755;BME280;41674;52.290;-1.474;2024-01-16T01:40:19;100596.73;;;-1.23;62.54
55755;BME280;41674;52.290;-1.474;2024-01-16T01:42:48;100591.56;;;-0.49;61.44
55755;BME280;41674;52.290;-1.474;2024-01-16T01:45:19;100589.57;;;-0.88;62.15
55755;BME280;41674;52.290;-1.474;2024-01-16T01:47:49;100590.65;;;-1.16;62.99
55755;BME280;41674;52.290;-1.474;2024-01-16T01:50:17;100588.19;;;-0.95;62.50
55755;BME280;41674;52.290;-1.474;2024-01-16T01:52:46;100588.94;;;-0.24;61.56
55755;BME280;41674;52.290;-1.474;2024-01-16T01:55:18;100582.54;;;-0.48;62.40
55755;BME280;41674;52.290;-1.474;2024-01-16T01:57:45;100583.76;;;-0.83;63.85
55755;BME280;41674;52.290;-1.474;2024-01-16T02:00:15;100585.55;;;-0.72;63.65
55755;BME280;41674;52.290;-1.474;2024-01-16T02:02:46;100584.99;;;-1.03;64.50
55755;BME280;41674;52.290;-1.474;2024-01-16T02:05:14;100582.92;;;-0.80;64.20
55755;BME280;41674;52.290;-1.474;2024-01-16T02:07:44;100582.55;;;-1.25;66.17
55755;BME280;41674;52.290;-1.474;2024-01-16T02:10:13;100579.01;;;-1.09;66.46
55755;BME280;41674;52.290;-1.474;2024-01-16T02:12:43;100576.32;;;-1.30;66.40
55755;BME280;41674;52.290;-1.474;2024-01-16T02:15:12;100576.46;;;-0.85;65.01
55755;BME280;41674;52.290;-1.474;2024-01-16T02:17:42;100572.57;;;-0.74;64.82
55755;BME280;41674;52.290;-1.474;2024-01-16T02:20:11;100571.00;;;-1.20;66.59
55755;BME280;41674;52.290;-1.474;2024-01-16T02:22:47;100577.12;;;-0.86;65.76
55755;BME280;41674;52.290;-1.474;2024-01-16T02:25:12;100572.53;;;-0.70;64.46
55755;BME280;41674;52.290;-1.474;2024-01-16T02:27:40;100570.86;;;-0.16;63.35
55755;BME280;41674;52.290;-1.474;2024-01-16T02:30:10;100563.98;;;-0.21;62.96
55755;BME280;41674;52.290;-1.474;2024-01-16T02:32:39;100558.95;;;-1.01;64.32
55755;BME280;41674;52.290;-1.474;2024-01-16T02:35:09;100564.87;;;-0.55;63.78
55755;BME280;41674;52.290;-1.474;2024-01-16T02:37:38;100560.13;;;-0.47;64.48
55755;BME280;41674;52.290;-1.474;2024-01-16T02:40:09;100559.21;;;-1.03;64.76
55755;BME280;41674;52.290;-1.474;2024-01-16T02:42:37;100556.71;;;-0.90;64.06
55755;BME280;41674;52.290;-1.474;2024-01-16T02:45:08;100552.35;;;-0.66;64.60
55755;BME280;41674;52.290;-1.474;2024-01-16T02:47:38;100547.19;;;-0.50;63.80
55755;BME280;41674;52.290;-1.474;2024-01-16T02:50:06;100548.87;;;-0.94;63.81
55755;BME280;41674;52.290;-1.474;2024-01-16T02:52:35;100549.37;;;-0.91;63.90
55755;BME280;41674;52.290;-1.474;2024-01-16T02:55:06;100546.42;;;-0.84;63.21
55755;BME280;41674;52.290;-1.474;2024-01-16T02:57:33;100545.40;;;-0.63;62.71
55755;BME280;41674;52.290;-1.474;2024-01-16T03:00:04;100540.57;;;-0.64;63.68
55755;BME280;41674;52.290;-1.474;2024-01-16T03:02:34;100538.28;;;-0.68;64.01
55755;BME280;41674;52.290;-1.474;2024-01-16T03:05:03;100539.35;;;-1.56;66.17
55755;BME280;41674;52.290;-1.474;2024-01-16T03:07:32;100538.50;;;-1.35;66.27
55755;BME280;41674;52.290;-1.474;2024-01-16T03:10:01;100539.39;;;-1.00;65.18
55755;BME280;41674;52.290;-1.474;2024-01-16T03:12:32;100536.94;;;-1.62;66.78
55755;BME280;41674;52.290;-1.474;2024-01-16T03:15:00;100534.00;;;-1.46;65.91
55755;BME280;41674;52.290;-1.474;2024-01-16T03:17:29;100534.19;;;-2.46;68.77
55755;BME280;41674;52.290;-1.474;2024-01-16T03:19:58;100531.16;;;-1.21;64.48
55755;BME280;41674;52.290;-1.474;2024-01-16T03:22:27;100531.33;;;-1.63;65.63
55755;BME280;41674;52.290;-1.474;2024-01-16T03:24:56;100529.62;;;-1.88;66.86
55755;BME280;41674;52.290;-1.474;2024-01-16T03:27:28;100525.10;;;-1.41;65.85
55755;BME280;41674;52.290;-1.474;2024-01-16T03:29:56;100523.21;;;-1.60;65.72
55755;BME280;41674;52.290;-1.474;2024-01-16T03:32:26;100527.92;;;-1.91;67.97
55755;BME280;41674;52.290;-1.474;2024-01-16T03:34:55;100531.19;;;-1.72;68.96
55755;BME280;41674;52.290;-1.474;2024-01-16T03:37:25;100530.14;;;-2.47;71.55
55755;BME280;41674;52.290;-1.474;2024-01-16T03:39:54;100533.81;;;-2.30;71.00
55755;BME280;41674;52.290;-1.474;2024-01-16T03:42:25;100534.73;;;-2.89;72.28
55755;BME280;41674;52.290;-1.474;2024-01-16T03:44:53;100525.87;;;-2.51;71.68
55755;BME280;41674;52.290;-1.474;2024-01-16T03:47:22;100516.69;;;-1.95;70.59
55755;BME280;41674;52.290;-1.474;2024-01-16T03:49:51;100520.86;;;-1.55;69.84
55755;BME280;41674;52.290;-1.474;2024-01-16T03:52:20;100516.83;;;-1.28;67.35
55755;BME280;41674;52.290;-1.474;2024-01-16T03:54:50;100509.89;;;-1.33;67.28
55755;BME280;41674;52.290;-1.474;2024-01-16T03:57:21;100507.21;;;-2.17;69.44
55755;BME280;41674;52.290;-1.474;2024-01-16T03:59:48;100502.15;;;-2.27;69.74
55755;BME280;41674;52.290;-1.474;2024-01-16T04:02:18;100498.00;;;-1.91;69.54
55755;BME280;41674;52.290;-1.474;2024-01-16T04:04:47;100494.08;;;-1.46;69.08
55755;BME280;41674;52.290;-1.474;2024-01-16T04:07:19;100494.07;;;-1.68;68.35
55755;BME280;41674;52.290;-1.474;2024-01-16T04:09:48;100494.12;;;-1.57;68.33
55755;BME280;41674;52.290;-1.474;2024-01-16T04:12:16;100497.74;;;-1.44;66.78
55755;BME280;41674;52.290;-1.474;2024-01-16T04:14:46;100491.09;;;-0.78;65.79
55755;BME280;41674;52.290;-1.474;2024-01-16T04:17:15;100491.33;;;-2.00;68.17
55755;BME280;41674;52.290;-1.474;2024-01-16T04:19:45;100488.37;;;-0.98;65.53
55755;BME280;41674;52.290;-1.474;2024-01-16T04:22:16;100481.46;;;-1.23;66.63
55755;BME280;41674;52.290;-1.474;2024-01-16T04:24:45;100479.19;;;-0.98;65.71
55755;BME280;41674;52.290;-1.474;2024-01-16T04:27:14;100468.74;;;-0.82;64.70
55755;BME280;41674;52.290;-1.474;2024-01-16T04:29:44;100469.43;;;-0.38;63.67
55755;BME280;41674;52.290;-1.474;2024-01-16T04:32:14;100466.61;;;-0.55;63.73
55755;BME280;41674;52.290;-1.474;2024-01-16T04:34:43;100462.70;;;-1.39;64.85
55755;BME280;41674;52.290;-1.474;2024-01-16T04:37:13;100459.65;;;-1.21;65.23
55755;BME280;41674;52.290;-1.474;2024-01-16T04:39:42;100454.61;;;-0.60;63.49
55755;BME280;41674;52.290;-1.474;2024-01-16T04:42:12;100455.08;;;-0.60;62.45
55755;BME280;41674;52.290;-1.474;2024-01-16T04:44:41;100452.52;;;-0.07;61.86
55755;BME280;41674;52.290;-1.474;2024-01-16T04:47:11;100453.49;;;-1.13;63.03
55755;BME280;41674;52.290;-1.474;2024-01-16T04:49:42;100447.94;;;-0.51;62.08
55755;BME280;41674;52.290;-1.474;2024-01-16T04:52:10;100442.86;;;-0.50;62.93
55755;BME280;41674;52.290;-1.474;2024-01-16T04:54:39;100436.13;;;-0.44;62.76
55755;BME280;41674;52.290;-1.474;2024-01-16T04:57:09;100432.06;;;-0.54;62.73
55755;BME280;41674;52.290;-1.474;2024-01-16T04:59:38;100430.20;;;-1.53;65.06
55755;BME280;41674;52.290;-1.474;2024-01-16T05:02:10;100431.94;;;-1.32;65.59
55755;BME280;41674;52.290;-1.474;2024-01-16T05:04:37;100430.89;;;-0.86;65.21
55755;BME280;41674;52.290;-1.474;2024-01-16T05:07:07;100429.02;;;-0.73;64.84
55755;BME280;41674;52.290;-1.474;2024-01-16T05:09:36;100426.92;;;-0.69;63.82
55755;BME280;41674;52.290;-1.474;2024-01-16T05:12:06;100425.17;;;-1.02;63.62
55755;BME280;41674;52.290;-1.474;2024-01-16T05:14:38;100424.92;;;-0.39;63.38
55755;BME280;41674;52.290;-1.474;2024-01-16T05:17:07;100422.36;;;-0.82;63.39
55755;BME280;41674;52.290;-1.474;2024-01-16T05:19:36;100417.83;;;-0.75;64.05
55755;BME280;41674;52.290;-1.474;2024-01-16T05:22:05;100412.14;;;-0.80;63.87
55755;BME280;41674;52.290;-1.474;2024-01-16T05:24:35;100406.73;;;-0.14;62.51
55755;BME280;41674;52.290;-1.474;2024-01-16T05:27:05;100401.58;;;0.04;62.48
55755;BME280;41674;52.290;-1.474;2024-01-16T05:29:34;100396.93;;;-0.38;61.92
55755;BME280;41674;52.290;-1.474;2024-01-16T05:32:04;100400.49;;;-0.24;61.83
55755;BME280;41674;52.290;-1.474;2024-01-16T05:34:34;100398.61;;;-1.03;64.40
55755;BME280;41674;52.290;-1.474;2024-01-16T05:37:04;100397.60;;;-1.63;64.70
55755;BME280;41674;52.290;-1.474;2024-01-16T05:39:33;100395.04;;;-1.14;64.79
55755;BME280;41674;52.290;-1.474;2024-01-16T05:42:05;100390.88;;;-0.57;63.89
55755;BME280;41674;52.290;-1.474;2024-01-16T05:44:33;100389.11;;;-0.59;62.35
55755;BME280;41674;52.290;-1.474;2024-01-16T05:47:03;100388.00;;;-0.15;62.32
55755;BME280;41674;52.290;-1.474;2024-01-16T05:49:34;100388.51;;;-1.51;64.38
55755;BME280;41674;52.290;-1.474;2024-01-16T05:52:03;100388.80;;;-1.22;64.17
55755;BME280;41674;52.290;-1.474;2024-01-16T05:54:32;100389.67;;;-1.26;63.69
55755;BME280;41674;52.290;-1.474;2024-01-16T05:57:02;100386.21;;;-0.61;63.84
55755;BME280;41674;52.290;-1.474;2024-01-16T05:59:31;100384.47;;;-0.47;63.61
55755;BME280;41674;52.290;-1.474;2024-01-16T06:02:02;100388.46;;;-0.70;64.48
55755;BME280;41674;52.290;-1.474;2024-01-16T06:04:31;100387.82;;;-0.84;63.59
55755;BME280;41674;52.290;-1.474;2024-01-16T06:07:01;100388.39;;;-1.81;67.15
55755;BME280;41674;52.290;-1.474;2024-01-16T06:09:30;100387.20;;;-1.31;65.41
55755;BME280;41674;52.290;-1.474;2024-01-16T06:12:00;100387.24;;;-0.97;65.82
55755;BME280;41674;52.290;-1.474;2024-01-16T06:14:30;100382.08;;;-1.49;66.48
55755;BME280;41674;52.290;-1.474;2024-01-16T06:17:00;100384.15;;;-1.18;65.81
55755;BME280;41674;52.290;-1.474;2024-01-16T06:19:31;100384.03;;;-1.05;65.43
55755;BME280;41674;52.290;-1.474;2024-01-16T06:22:01;100377.80;;;-1.10;64.55
55755;BME280;41674;52.290;-1.474;2024-01-16T06:24:29;100375.69;;;-0.76;64.13
55755;BME280;41674;52.290;-1.474;2024-01-16T06:26:58;100373.25;;;-0.81;64.67
55755;BME280;41674;52.290;-1.474;2024-01-16T06:29:28;100372.73;;;-1.07;64.63
55755;BME280;41674;52.290;-1.474;2024-01-16T06:31:58;100374.19;;;-0.47;62.79
55755;BME280;41674;52.290;-1.474;2024-01-16T06:34:27;100371.29;;;-0.53;64.36
55755;BME280;41674;52.290;-1.474;2024-01-16T06:36:59;100373.34;;;-2.06;68.14
55755;BME280;41674;52.290;-1.474;2024-01-16T06:39:27;100369.35;;;-1.66;68.68
55755;BME280;41674;52.290;-1.474;2024-01-16T06:41:57;100369.48;;;-1.33;67.27
55755;BME280;41674;52.290;-1.474;2024-01-16T06:44:27;100370.06;;;-0.90;66.69
55755;BME280;41674;52.290;-1.474;2024-01-16T06:46:56;100362.56;;;-1.54;68.23
55755;BME280;41674;52.290;-1.474;2024-01-16T06:49:26;100364.87;;;-2.25;71.84
55755;BME280;41674;52.290;-1.474;2024-01-16T06:51:55;100367.24;;;-2.32;73.54
55755;BME280;41674;52.290;-1.474;2024-01-16T06:54:25;100364.36;;;-1.71;72.73
55755;BME280;41674;52.290;-1.474;2024-01-16T06:56:54;100358.55;;;-1.37;70.34
55755;BME280;41674;52.290;-1.474;2024-01-16T06:59:24;100356.46;;;-1.76;71.30
55755;BME280;41674;52.290;-1.474;2024-01-16T07:01:53;100354.23;;;-1.15;70.08
55755;BME280;41674;52.290;-1.474;2024-01-16T07:04:23;100358.11;;;-2.47;72.81
55755;BME280;41674;52.290;-1.474;2024-01-16T07:06:52;100347.86;;;-1.90;71.47
55755;BME280;41674;52.290;-1.474;2024-01-16T07:09:21;100344.90;;;-1.80;71.25
55755;BME280;41674;52.290;-1.474;2024-01-16T07:11:51;100344.62;;;-1.27;70.81
55755;BME280;41674;52.290;-1.474;2024-01-16T07:14:22;100343.14;;;-1.79;71.56
55755;BME280;41674;52.290;-1.474;2024-01-16T07:16:50;100338.11;;;-1.65;71.55
55755;BME280;41674;52.290;-1.474;2024-01-16T07:19:20;100330.42;;;-1.77;72.98
55755;BME280;41674;52.290;-1.474;2024-01-16T07:21:49;100330.22;;;-1.39;71.53
55755;BME280;41674;52.290;-1.474;2024-01-16T07:24:19;100324.01;;;-1.81;72.72
55755;BME280;41674;52.290;-1.474;2024-01-16T07:26:49;100322.44;;;-1.86;72.98
55755;BME280;41674;52.290;-1.474;2024-01-16T07:29:20;100325.57;;;-1.58;71.70
55755;BME280;41674;52.290;-1.474;2024-01-16T07:31:48;100328.09;;;-0.88;69.85
55755;BME280;41674;52.290;-1.474;2024-01-16T07:34:20;100328.49;;;-1.49;70.94
55755;BME280;41674;52.290;-1.474;2024-01-16T07:36:48;100329.57;;;-1.00;68.77
55755;BME280;41674;52.290;-1.474;2024-01-16T07:39:18;100332.48;;;-0.58;67.62
55755;BME280;41674;52.290;-1.474;2024-01-16T07:41:49;100331.52;;;-1.08;67.97
55755;BME280;41674;52.290;-1.474;2024-01-16T07:44:17;100329.64;;;-1.11;68.33
55755;BME280;41674;52.290;-1.474;2024-01-16T07:46:47;100326.09;;;-1.22;68.29
55755;BME280;41674;52.290;-1.474;2024-01-16T07:49:18;100321.65;;;-0.97;68.97
55755;BME280;41674;52.290;-1.474;2024-01-16T07:51:47;100314.45;;;-0.24;67.06
55755;BME280;41674;52.290;-1.474;2024-01-16T07:54:16;100308.96;;;-0.16;65.63
55755;BME280;41674;52.290;-1.474;2024-01-16T07:56:46;100307.11;;;-0.55;67.53
55755;BME280;41674;52.290;-1.474;2024-01-16T07:59:18;100310.88;;;-0.86;70.05
55755;BME280;41674;52.290;-1.474;2024-01-16T08:01:45;100311.63;;;-0.78;70.16
55755;BME280;41674;52.290;-1.474;2024-01-16T08:04:15;100304.82;;;-0.36;69.47
55755;BME280;41674;52.290;-1.474;2024-01-16T08:06:45;100304.37;;;-0.85;71.22
55755;BME280;41674;52.290;-1.474;2024-01-16T08:09:14;100299.22;;;-0.20;70.08
55755;BME280;41674;52.290;-1.474;2024-01-16T08:11:44;100296.68;;;-0.36;69.83
55755;BME280;41674;52.290;-1.474;2024-01-16T08:14:15;100294.56;;;-0.01;68.77
55755;BME280;41674;52.290;-1.474;2024-01-16T08:16:44;100292.60;;;-0.71;70.72
55755;BME280;41674;52.290;-1.474;2024-01-16T08:19:14;100294.07;;;-0.50;70.95
55755;BME280;41674;52.290;-1.474;2024-01-16T08:21:45;100297.51;;;-0.64;71.22
55755;BME280;41674;52.290;-1.474;2024-01-16T08:24:13;100294.70;;;-1.46;74.29
55755;BME280;41674;52.290;-1.474;2024-01-16T08:26:44;100294.95;;;-0.22;70.47
55755;BME280;41674;52.290;-1.474;2024-01-16T08:29:14;100293.68;;;-0.75;71.28
55755;BME280;41674;52.290;-1.474;2024-01-16T08:31:42;100293.57;;;-0.40;72.19
55755;BME280;41674;52.290;-1.474;2024-01-16T08:34:12;100290.42;;;-0.71;72.42
55755;BME280;41674;52.290;-1.474;2024-01-16T08:36:42;100287.48;;;-0.60;72.79
55755;BME280;41674;52.290;-1.474;2024-01-16T08:39:12;100287.54;;;-0.79;72.14
55755;BME280;41674;52.290;-1.474;2024-01-16T08:41:41;100291.28;;;-1.36;76.50
55755;BME280;41674;52.290;-1.474;2024-01-16T08:44:12;100292.07;;;-0.95;75.72
55755;BME280;41674;52.290;-1.474;2024-01-16T08:46:40;100286.46;;;-0.49;74.48
55755;BME280;41674;52.290;-1.474;2024-01-16T08:49:10;100277.94;;;-0.34;71.88
55755;BME280;41674;52.290;-1.474;2024-01-16T08:51:39;100283.97;;;-0.55;73.61
55755;BME280;41674;52.290;-1.474;2024-01-16T08:54:09;100278.61;;;-0.18;72.84
55755;BME280;41674;52.290;-1.474;2024-01-16T08:56:39;100269.82;;;-0.21;72.05
55755;BME280;41674;52.290;-1.474;2024-01-16T08:59:10;100264.69;;;-0.16;70.38
55755;BME280;41674;52.290;-1.474;2024-01-16T09:01:37;100268.33;;;-0.53;72.43
55755;BME280;41674;52.290;-1.474;2024-01-16T09:04:07;100270.53;;;-0.40;73.00
55755;BME280;41674;52.290;-1.474;2024-01-16T09:06:37;100267.29;;;-0.72;74.24
55755;BME280;41674;52.290;-1.474;2024-01-16T09:09:07;100268.12;;;-0.95;75.67
55755;BME280;41674;52.290;-1.474;2024-01-16T09:11:36;100269.90;;;-0.56;75.83
55755;BME280;41674;52.290;-1.474;2024-01-16T09:14:06;100261.40;;;-0.44;73.42
55755;BME280;41674;52.290;-1.474;2024-01-16T09:16:37;100262.25;;;-0.46;74.40
55755;BME280;41674;52.290;-1.474;2024-01-16T09:19:06;100258.96;;;-0.72;75.35
55755;BME280;41674;52.290;-1.474;2024-01-16T09:21:37;100260.15;;;-0.71;75.84
55755;BME280;41674;52.290;-1.474;2024-01-16T09:24:05;100259.94;;;-0.60;76.84
55755;BME280;41674;52.290;-1.474;2024-01-16T09:26:34;100261.24;;;-0.78;77.81
55755;BME280;41674;52.290;-1.474;2024-01-16T09:29:03;100256.75;;;-0.50;76.83
55755;BME280;41674;52.290;-1.474;2024-01-16T09:31:33;100260.00;;;-0.56;77.81
55755;BME280;41674;52.290;-1.474;2024-01-16T09:34:03;100253.40;;;-0.08;75.52
55755;BME280;41674;52.290;-1.474;2024-01-16T09:36:33;100252.94;;;-0.62;77.55
55755;BME280;41674;52.290;-1.474;2024-01-16T09:39:03;100253.10;;;-0.54;76.58
55755;BME280;41674;52.290;-1.474;2024-01-16T09:41:32;100254.84;;;-0.71;77.81
55755;BME280;41674;52.290;-1.474;2024-01-16T09:44:02;100253.58;;;-1.33;80.91
55755;BME280;41674;52.290;-1.474;2024-01-16T09:46:32;100255.44;;;-0.86;79.51
55755;BME280;41674;52.290;-1.474;2024-01-16T09:49:01;100257.92;;;-0.93;80.31
55755;BME280;41674;52.290;-1.474;2024-01-16T09:51:30;100255.89;;;-0.93;80.64
55755;BME280;41674;52.290;-1.474;2024-01-16T09:54:00;100251.85;;;-0.92;79.83
55755;BME280;41674;52.290;-1.474;2024-01-16T09:56:31;100241.65;;;-0.44;77.21
55755;BME280;41674;52.290;-1.474;2024-01-16T09:59:02;100245.99;;;-0.23;77.50
55755;BME280;41674;52.290;-1.474;2024-01-16T10:01:28;100240.22;;;-0.32;77.36
55755;BME280;41674;52.290;-1.474;2024-01-16T10:03:57;100232.94;;;-0.52;76.17
55755;BME280;41674;52.290;-1.474;2024-01-16T10:06:30;100227.53;;;0.58;73.26
55755;BME280;41674;52.290;-1.474;2024-01-16T10:08:57;100226.99;;;0.06;73.51
55755;BME280;41674;52.290;-1.474;2024-01-16T10:11:29;100224.39;;;0.70;71.02
55755;BME280;41674;52.290;-1.474;2024-01-16T10:13:56;100220.55;;;-0.61;73.94
55755;BME280;41674;52.290;-1.474;2024-01-16T10:19:03;100209.96;;;-0.46;76.52
55755;BME280;41674;52.290;-1.474;2024-01-16T10:21:26;100208.63;;;-0.83;76.05
55755;BME280;41674;52.290;-1.474;2024-01-16T10:23:54;100207.94;;;-0.23;75.88
55755;BME280;41674;52.290;-1.474;2024-01-16T10:26:24;100201.72;;;0.12;73.06
55755;BME280;41674;52.290;-1.474;2024-01-16T10:29:02;100193.16;;;-0.50;73.43
55755;BME280;41674;52.290;-1.474;2024-01-16T10:31:29;100191.94;;;-0.14;73.70
55755;BME280;41674;52.290;-1.474;2024-01-16T10:33:53;100189.27;;;0.28;72.05
55755;BME280;41674;52.290;-1.474;2024-01-16T10:36:24;100183.79;;;0.03;73.31
55755;BME280;41674;52.290;-1.474;2024-01-16T10:38:52;100184.98;;;0.37;73.37
55755;BME280;41674;52.290;-1.474;2024-01-16T10:41:23;100190.75;;;-0.88;77.40
55755;BME280;41674;52.290;-1.474;2024-01-16T10:46:23;100189.99;;;-1.01;80.25
55755;BME280;41674;52.290;-1.474;2024-01-16T10:48:59;100190.76;;;-1.06;82.56
55755;BME280;41674;52.290;-1.474;2024-01-16T10:51:21;100188.53;;;-1.39;83.31
55755;BME280;41674;52.290;-1.474;2024-01-16T10:53:50;100178.96;;;-1.24;82.40
55755;BME280;41674;52.290;-1.474;2024-01-16T10:56:21;100173.81;;;-0.58;80.22
55755;BME280;41674;52.290;-1.474;2024-01-16T10:58:55;100170.58;;;-0.45;79.23
55755;BME280;41674;52.290;-1.474;2024-01-16T11:01:18;100167.92;;;-0.54;78.74
55755;BME280;41674;52.290;-1.474;2024-01-16T11:03:49;100166.82;;;0.02;76.37
55755;BME280;41674;52.290;-1.474;2024-01-16T11:06:17;100170.69;;;-0.06;77.59
55755;BME280;41674;52.290;-1.474;2024-01-16T11:08:47;100168.02;;;-0.03;77.70
55755;BME280;41674;52.290;-1.474;2024-01-16T11:11:17;100163.03;;;-0.45;79.73
55755;BME280;41674;52.290;-1.474;2024-01-16T11:13:46;100157.75;;;-0.63;80.88
55755;BME280;41674;52.290;-1.474;2024-01-16T11:16:17;100151.09;;;-0.27;79.38
55755;BME280;41674;52.290;-1.474;2024-01-16T11:18:44;100141.48;;;-0.02;77.80
55755;BME280;41674;52.290;-1.474;2024-01-16T11:21:15;100134.36;;;0.81;74.83
55755;BME280;41674;52.290;-1.474;2024-01-16T11:23:45;100131.11;;;1.08;73.48
55755;BME280;41674;52.290;-1.474;2024-01-16T11:26:24;100137.13;;;1.12;72.94
55755;BME280;41674;52.290;-1.474;2024-01-16T11:28:44;100140.75;;;0.33;75.97
55755;BME280;41674;52.290;-1.474;2024-01-16T11:33:43;100135.40;;;0.30;76.44
55755;BME280;41674;52.290;-1.474;2024-01-16T11:38:42;100140.18;;;0.38;76.07
55755;BME280;41674;52.290;-1.474;2024-01-16T11:43:41;100139.50;;;0.45;75.06
55755;BME280;41674;52.290;-1.474;2024-01-16T11:46:10;100135.82;;;0.57;75.96
55755;BME280;41674;52.290;-1.474;2024-01-16T11:48:40;100133.51;;;0.98;75.72
55755;BME280;41674;52.290;-1.474;2024-01-16T11:51:23;100130.16;;;0.92;73.73
55755;BME280;41674;52.290;-1.474;2024-01-16T11:53:40;100126.92;;;0.71;74.06
55755;BME280;41674;52.290;-1.474;2024-01-16T11:56:25;100117.30;;;1.56;71.38
55755;BME280;41674;52.290;-1.474;2024-01-16T11:58:48;100120.14;;;1.38;73.37
55755;BME280;41674;52.290;-1.474;2024-01-16T12:01:09;100112.52;;;1.19;71.80
55755;BME280;41674;52.290;-1.474;2024-01-16T12:03:38;100111.19;;;2.06;70.14
55755;BME280;41674;52.290;-1.474;2024-01-16T12:06:07;100105.74;;;2.45;68.32
55755;BME280;41674;52.290;-1.474;2024-01-16T12:08:37;100101.49;;;2.19;68.03
55755;BME280;41674;52.290;-1.474;2024-01-16T12:11:07;100097.55;;;2.79;67.50
55755;BME280;41674;52.290;-1.474;2024-01-16T12:13:37;100092.49;;;3.06;65.31
55755;BME280;41674;52.290;-1.474;2024-01-16T12:16:05;100091.19;;;2.46;66.38
55755;BME280;41674;52.290;-1.474;2024-01-16T12:18:35;100081.31;;;2.94;65.32
55755;BME280;41674;52.290;-1.474;2024-01-16T12:21:14;100072.26;;;3.52;62.67
55755;BME280;41674;52.290;-1.474;2024-01-16T12:23:35;100062.57;;;3.34;63.49
55755;BME280;41674;52.290;-1.474;2024-01-16T12:26:03;100054.14;;;3.06;63.35
55755;BME280;41674;52.290;-1.474;2024-01-16T12:28:32;100051.02;;;2.46;66.31
55755;BME280;41674;52.290;-1.474;2024-01-16T12:31:02;100042.60;;;2.64;66.90
55755;BME280;41674;52.290;-1.474;2024-01-16T12:33:32;100033.52;;;2.89;66.74
55755;BME280;41674;52.290;-1.474;2024-01-16T12:36:04;100026.95;;;3.11;65.83
55755;BME280;41674;52.290;-1.474;2024-01-16T12:38:30;100016.03;;;2.84;67.58
55755;BME280;41674;52.290;-1.474;2024-01-16T12:41:02;100016.10;;;3.27;66.89
55755;BME280;41674;52.290;-1.474;2024-01-16T12:43:31;100008.81;;;3.58;64.21
55755;BME280;41674;52.290;-1.474;2024-01-16T12:45:59;99996.02;;;4.33;61.02
55755;BME280;41674;52.290;-1.474;2024-01-16T12:48:29;99988.65;;;4.04;61.16
55755;BME280;41674;52.290;-1.474;2024-01-16T12:51:00;99982.62;;;4.52;59.53
55755;BME280;41674;52.290;-1.474;2024-01-16T12:53:29;99977.52;;;5.03;59.02
55755;BME280;41674;52.290;-1.474;2024-01-16T12:55:59;99972.81;;;4.82;56.97
55755;BME280;41674;52.290;-1.474;2024-01-16T12:58:34;99967.83;;;5.21;56.58
55755;BME280;41674;52.290;-1.474;2024-01-16T13:03:28;99950.52;;;4.83;56.91
55755;BME280;41674;52.290;-1.474;2024-01-16T13:05:58;99944.66;;;4.92;56.17
55755;BME280;41674;52.290;-1.474;2024-01-16T13:08:26;99938.07;;;4.90;55.95